KDUJ/DUJ METAR and TAF weather

Enter ICAO airport designator
Station Type Date Time Source
KDUJ METAR 2022/01/29 12:53 UTC NOAA

KDUJ 291253Z AUTO 35009KT 10SM CLR M17/M21 A2996 RMK AO2 SLP182 T11721206


Station Type Date Time Source
KDUJ Decoded METAR 2022/01/29 12:53 UTC NOAA

DU BOIS-JEFFERSON COUNTY, PA, United States (KDUJ) 41-11N 078-53W
Jan 29, 2022 - 07:53 AM EST / 2022.01.29 1253 UTC
Wind: from the N (350 degrees) at 10 MPH (9 KT):0
Visibility: 10 mile(s):0
Sky conditions: clear
Temperature: 1.0 F (-17.2 C)
Windchill: -14 F (-26 C):2
Dew Point: -5.1 F (-20.6 C)
Relative Humidity: 74%
Pressure (altimeter): 29.96 in. Hg (1014 hPa)
ob: KDUJ 291253Z AUTO 35009KT 10SM CLR M17/M21 A2996 RMK AO2 SLP182 T11721206
cycle: 13

Station Type Date Time Source
KDUJ TAF 2022/01/29 14:45 UTC NOAA

TAF
AMD KDUJ 291342Z 2914/3012 35010KT P6SM SKC
TEMPO 2916/2918 BKN015
FM291800 32011G18KT P6SM SCT015
FM300000 28007KT P6SM BKN100
FM300800 13003KT P6SM BKN020

Example: see airport list